sensor_id;sensor_type;location;lat;lon;timestamp;pressure;altitude;pressure_sealevel;temperature;humidity
13367;BME280;6752;52.612;13.630;2023-05-13T00:04:57;101351.70;;;13.39;62.80
13367;BME280;6752;52.612;13.630;2023-05-13T00:09:59;101357.34;;;13.44;62.78
13367;BME280;6752;52.612;13.630;2023-05-13T00:15:02;101353.71;;;13.38;62.99
13367;BME280;6752;52.612;13.630;2023-05-13T00:20:04;101357.96;;;13.33;63.13
13367;BME280;6752;52.612;13.630;2023-05-13T00:25:06;101360.80;;;13.14;64.12
13367;BME280;6752;52.612;13.630;2023-05-13T00:30:09;101363.74;;;13.15;64.22
13367;BME280;6752;52.612;13.630;2023-05-13T00:35:11;101361.84;;;13.16;64.13
13367;BME280;6752;52.612;13.630;2023-05-13T00:40:21;101374.41;;;13.11;64.90
13367;BME280;6752;52.612;13.630;2023-05-13T00:45:19;101380.58;;;13.16;64.51
13367;BME280;6752;52.612;13.630;2023-05-13T00:50:21;101378.09;;;13.11;64.78
13367;BME280;6752;52.612;13.630;2023-05-13T00:55:24;101376.23;;;13.24;64.25
13367;BME280;6752;52.612;13.630;2023-05-13T01:00:27;101377.01;;;13.15;64.72
13367;BME280;6752;52.612;13.630;2023-05-13T01:05:30;101383.44;;;13.18;64.42
13367;BME280;6752;52.612;13.630;2023-05-13T01:10:34;101380.16;;;13.15;64.62
13367;BME280;6752;52.612;13.630;2023-05-13T01:15:37;101379.44;;;13.17;64.37
13367;BME280;6752;52.612;13.630;2023-05-13T01:20:40;101389.20;;;13.23;64.04
13367;BME280;6752;52.612;13.630;2023-05-13T01:25:39;101390.70;;;13.15;64.38
13367;BME280;6752;52.612;13.630;2023-05-13T01:30:42;101402.89;;;13.03;64.74
13367;BME280;6752;52.612;13.630;2023-05-13T01:35:44;101407.41;;;13.00;64.99
13367;BME280;6752;52.612;13.630;2023-05-13T01:40:46;101407.42;;;12.97;65.00
13367;BME280;6752;52.612;13.630;2023-05-13T01:45:49;101416.25;;;12.83;65.44
13367;BME280;6752;52.612;13.630;2023-05-13T01:50:51;101421.97;;;12.72;66.23
13367;BME280;6752;52.612;13.630;2023-05-13T01:55:53;101419.44;;;12.45;67.56
13367;BME280;6752;52.612;13.630;2023-05-13T02:00:56;101422.50;;;12.42;67.54
13367;BME280;6752;52.612;13.630;2023-05-13T02:05:58;101413.37;;;12.36;67.80
13367;BME280;6752;52.612;13.630;2023-05-13T02:11:01;101416.64;;;12.36;67.73
13367;BME280;6752;52.612;13.630;2023-05-13T02:16:03;101426.17;;;11.97;70.81
13367;BME280;6752;52.612;13.630;2023-05-13T02:21:05;101426.03;;;11.48;74.44
13367;BME280;6752;52.612;13.630;2023-05-13T02:26:08;101430.66;;;11.47;74.16
13367;BME280;6752;52.612;13.630;2023-05-13T02:31:10;101430.51;;;11.22;75.84
13367;BME280;6752;52.612;13.630;2023-05-13T02:36:12;101433.86;;;11.14;75.84
13367;BME280;6752;52.612;13.630;2023-05-13T02:41:14;101432.86;;;10.98;76.80
13367;BME280;6752;52.612;13.630;2023-05-13T02:46:17;101439.98;;;10.65;79.78
13367;BME280;6752;52.612;13.630;2023-05-13T02:51:19;101439.63;;;10.64;79.79
13367;BME280;6752;52.612;13.630;2023-05-13T02:56:21;101442.13;;;10.59;79.49
13367;BME280;6752;52.612;13.630;2023-05-13T03:01:23;101443.04;;;10.49;80.58
13367;BME280;6752;52.612;13.630;2023-05-13T03:06:26;101448.58;;;10.65;80.07
13367;BME280;6752;52.612;13.630;2023-05-13T03:11:28;101442.63;;;11.06;76.96
13367;BME280;6752;52.612;13.630;2023-05-13T03:16:30;101452.91;;;10.73;79.67
13367;BME280;6752;52.612;13.630;2023-05-13T03:21:33;101453.22;;;10.71;79.57
13367;BME280;6752;52.612;13.630;2023-05-13T03:26:35;101450.67;;;11.31;75.54
13367;BME280;6752;52.612;13.630;2023-05-13T03:31:37;101442.80;;;11.28;74.42
13367;BME280;6752;52.612;13.630;2023-05-13T03:36:40;101452.23;;;11.26;74.65
13367;BME280;6752;52.612;13.630;2023-05-13T03:41:42;101465.95;;;10.85;77.95
13367;BME280;6752;52.612;13.630;2023-05-13T03:46:45;101466.94;;;10.67;81.20
13367;BME280;6752;52.612;13.630;2023-05-13T03:51:47;101466.73;;;10.65;80.88
13367;BME280;6752;52.612;13.630;2023-05-13T03:56:49;101475.53;;;10.47;83.37
13367;BME280;6752;52.612;13.630;2023-05-13T04:01:52;101487.46;;;10.42;83.42
13367;BME280;6752;52.612;13.630;2023-05-13T04:06:54;101486.72;;;10.41;82.57
13367;BME280;6752;52.612;13.630;2023-05-13T04:11:56;101487.00;;;10.22;84.25
13367;BME280;6752;52.612;13.630;2023-05-13T04:16:59;101491.42;;;10.26;85.07
13367;BME280;6752;52.612;13.630;2023-05-13T04:22:01;101493.43;;;10.42;83.62
13367;BME280;6752;52.612;13.630;2023-05-13T04:27:03;101501.12;;;10.49;85.93
13367;BME280;6752;52.612;13.630;2023-05-13T04:32:05;101508.71;;;10.74;86.30
13367;BME280;6752;52.612;13.630;2023-05-13T04:37:07;101511.86;;;10.95;86.85
13367;BME280;6752;52.612;13.630;2023-05-13T04:42:09;101503.34;;;11.18;88.44
13367;BME280;6752;52.612;13.630;2023-05-13T04:47:11;101511.19;;;11.54;89.10
13367;BME280;6752;52.612;13.630;2023-05-13T04:52:14;101517.39;;;12.12;86.27
13367;BME280;6752;52.612;13.630;2023-05-13T04:57:16;101518.08;;;12.57;85.72
13367;BME280;6752;52.612;13.630;2023-05-13T05:02:18;101506.03;;;13.06;71.29
13367;BME280;6752;52.612;13.630;2023-05-13T05:07:20;101502.47;;;13.50;66.20
13367;BME280;6752;52.612;13.630;2023-05-13T05:12:22;101513.74;;;13.92;64.27
13367;BME280;6752;52.612;13.630;2023-05-13T05:17:24;101507.80;;;14.23;62.57
13367;BME280;6752;52.612;13.630;2023-05-13T05:22:27;101514.25;;;14.48;61.24
13367;BME280;6752;52.612;13.630;2023-05-13T05:27:29;101511.86;;;14.82;59.31
13367;BME280;6752;52.612;13.630;2023-05-13T05:32:31;101513.84;;;15.03;58.20
13367;BME280;6752;52.612;13.630;2023-05-13T05:37:34;101512.21;;;15.13;57.32
13367;BME280;6752;52.612;13.630;2023-05-13T05:42:36;101516.62;;;15.48;57.07
13367;BME280;6752;52.612;13.630;2023-05-13T05:47:38;101507.39;;;16.25;57.31
13367;BME280;6752;52.612;13.630;2023-05-13T05:52:41;101518.94;;;16.66;56.21
13367;BME280;6752;52.612;13.630;2023-05-13T05:57:43;101515.71;;;16.75;54.78
13367;BME280;6752;52.612;13.630;2023-05-13T06:02:46;101519.55;;;16.74;53.84
13367;BME280;6752;52.612;13.630;2023-05-13T06:07:48;101523.19;;;17.34;53.53
13367;BME280;6752;52.612;13.630;2023-05-13T06:12:50;101521.49;;;17.48;52.72
13367;BME280;6752;52.612;13.630;2023-05-13T06:17:53;101513.80;;;18.23;52.97
13367;BME280;6752;52.612;13.630;2023-05-13T06:22:55;101510.56;;;18.84;51.30
13367;BME280;6752;52.612;13.630;2023-05-13T06:27:57;101517.80;;;18.24;50.27
13367;BME280;6752;52.612;13.630;2023-05-13T06:33:00;101516.72;;;18.45;49.77
13367;BME280;6752;52.612;13.630;2023-05-13T06:38:02;101516.57;;;18.62;47.92
13367;BME280;6752;52.612;13.630;2023-05-13T06:43:05;101514.20;;;19.42;48.60
13367;BME280;6752;52.612;13.630;2023-05-13T06:48:07;101503.78;;;19.76;47.18
13367;BME280;6752;52.612;13.630;2023-05-13T06:53:09;101503.78;;;19.90;46.34
13367;BME280;6752;52.612;13.630;2023-05-13T06:58:14;101494.58;;;19.84;46.22
13367;BME280;6752;52.612;13.630;2023-05-13T07:03:17;101491.46;;;20.07;44.73
13367;BME280;6752;52.612;13.630;2023-05-13T07:08:19;101487.45;;;20.60;44.30
13367;BME280;6752;52.612;13.630;2023-05-13T07:13:21;101481.97;;;20.49;42.80
13367;BME280;6752;52.612;13.630;2023-05-13T07:18:24;101485.34;;;20.37;42.04
13367;BME280;6752;52.612;13.630;2023-05-13T07:23:26;101477.84;;;20.57;42.19
13367;BME280;6752;52.612;13.630;2023-05-13T07:28:28;101467.03;;;20.52;41.42
13367;BME280;6752;52.612;13.630;2023-05-13T07:33:31;101468.95;;;20.73;40.25
13367;BME280;6752;52.612;13.630;2023-05-13T07:38:33;101454.80;;;20.69;38.73
13367;BME280;6752;52.612;13.630;2023-05-13T07:43:35;101452.36;;;21.14;38.48
13367;BME280;6752;52.612;13.630;2023-05-13T07:48:37;101446.17;;;20.90;37.93
13367;BME280;6752;52.612;13.630;2023-05-13T07:53:40;101456.59;;;21.30;39.63
13367;BME280;6752;52.612;13.630;2023-05-13T07:58:42;101454.20;;;21.25;37.77
13367;BME280;6752;52.612;13.630;2023-05-13T08:03:44;101453.14;;;21.39;38.87
13367;BME280;6752;52.612;13.630;2023-05-13T08:08:47;101450.69;;;21.13;37.77
13367;BME280;6752;52.612;13.630;2023-05-13T08:18:51;101446.34;;;21.33;36.83
13367;BME280;6752;52.612;13.630;2023-05-13T08:23:53;101448.02;;;21.49;37.06
13367;BME280;6752;52.612;13.630;2023-05-13T08:28:55;101442.10;;;21.18;35.81
13367;BME280;6752;52.612;13.630;2023-05-13T08:33:58;101444.16;;;21.68;36.63
13367;BME280;6752;52.612;13.630;2023-05-13T08:39:00;101450.58;;;22.07;36.69
13367;BME280;6752;52.612;13.630;2023-05-13T08:44:03;101456.70;;;21.26;35.92
13367;BME280;6752;52.612;13.630;2023-05-13T08:49:05;101451.48;;;21.50;35.51
13367;BME280;6752;52.612;13.630;2023-05-13T08:54:08;101466.23;;;21.79;35.93
13367;BME280;6752;52.612;13.630;2023-05-13T08:59:10;101470.58;;;22.81;37.17
13367;BME280;6752;52.612;13.630;2023-05-13T09:04:12;101471.37;;;22.22;37.29
13367;BME280;6752;52.612;13.630;2023-05-13T09:09:14;101454.12;;;22.43;35.68
13367;BME280;6752;52.612;13.630;2023-05-13T09:14:20;101463.48;;;22.09;35.95
13367;BME280;6752;52.612;13.630;2023-05-13T09:19:18;101450.11;;;22.37;35.53
13367;BME280;6752;52.612;13.630;2023-05-13T09:24:20;101456.95;;;22.75;36.02
13367;BME280;6752;52.612;13.630;2023-05-13T09:29:23;101449.11;;;22.52;35.75
13367;BME280;6752;52.612;13.630;2023-05-13T09:39:29;101438.72;;;22.81;36.54
13367;BME280;6752;52.612;13.630;2023-05-13T09:44:31;101446.80;;;22.85;36.18
13367;BME280;6752;52.612;13.630;2023-05-13T09:49:33;101432.13;;;23.01;36.39
13367;BME280;6752;52.612;13.630;2023-05-13T09:54:38;101433.76;;;23.07;35.03
13367;BME280;6752;52.612;13.630;2023-05-13T09:59:41;101422.78;;;22.67;34.61
13367;BME280;6752;52.612;13.630;2023-05-13T10:04:43;101415.12;;;22.76;34.40
13367;BME280;6752;52.612;13.630;2023-05-13T10:09:45;101423.42;;;22.51;34.28
13367;BME280;6752;52.612;13.630;2023-05-13T10:14:52;101410.94;;;22.86;33.50
13367;BME280;6752;52.612;13.630;2023-05-13T10:19:51;101424.67;;;23.19;35.31
13367;BME280;6752;52.612;13.630;2023-05-13T10:24:54;101420.70;;;23.86;34.11
13367;BME280;6752;52.612;13.630;2023-05-13T10:29:55;101413.77;;;23.47;33.52
13367;BME280;6752;52.612;13.630;2023-05-13T10:35:07;101410.63;;;24.07;33.53
13367;BME280;6752;52.612;13.630;2023-05-13T10:40:15;101401.53;;;24.26;33.18
13367;BME280;6752;52.612;13.630;2023-05-13T10:45:15;101397.70;;;24.91;31.97
13367;BME280;6752;52.612;13.630;2023-05-13T10:50:23;101396.19;;;25.01;33.23
13367;BME280;6752;52.612;13.630;2023-05-13T10:55:25;101401.28;;;25.43;32.97
13367;BME280;6752;52.612;13.630;2023-05-13T11:00:29;101397.34;;;25.09;32.85
13367;BME280;6752;52.612;13.630;2023-05-13T11:05:29;101392.76;;;25.44;31.65
13367;BME280;6752;52.612;13.630;2023-05-13T11:10:31;101393.30;;;26.04;31.93
13367;BME280;6752;52.612;13.630;2023-05-13T11:15:52;101384.04;;;25.67;31.50
13367;BME280;6752;52.612;13.630;2023-05-13T11:20:54;101378.27;;;24.86;30.88
13367;BME280;6752;52.612;13.630;2023-05-13T11:26:12;101370.56;;;25.62;31.65
13367;BME280;6752;52.612;13.630;2023-05-13T11:31:14;101371.27;;;25.09;31.64
13367;BME280;6752;52.612;13.630;2023-05-13T11:36:17;101366.16;;;25.75;32.22
13367;BME280;6752;52.612;13.630;2023-05-13T11:41:19;101369.16;;;25.81;32.21
13367;BME280;6752;52.612;13.630;2023-05-13T11:46:21;101354.64;;;25.53;30.02
13367;BME280;6752;52.612;13.630;2023-05-13T11:51:24;101361.80;;;24.87;30.50
13367;BME280;6752;52.612;13.630;2023-05-13T11:56:26;101365.31;;;24.83;31.61
13367;BME280;6752;52.612;13.630;2023-05-13T12:01:29;101351.21;;;25.68;32.06
13367;BME280;6752;52.612;13.630;2023-05-13T12:06:31;101357.94;;;25.58;31.84
13367;BME280;6752;52.612;13.630;2023-05-13T12:11:32;101359.61;;;25.14;31.49
13367;BME280;6752;52.612;13.630;2023-05-13T12:16:34;101360.32;;;24.40;31.24
13367;BME280;6752;52.612;13.630;2023-05-13T12:21:37;101361.02;;;24.81;31.23
13367;BME280;6752;52.612;13.630;2023-05-13T12:26:38;101348.87;;;24.15;31.27
13367;BME280;6752;52.612;13.630;2023-05-13T12:31:41;101350.45;;;25.28;31.41
13367;BME280;6752;52.612;13.630;2023-05-13T12:36:43;101366.70;;;24.26;32.40
13367;BME280;6752;52.612;13.630;2023-05-13T12:41:49;101364.78;;;24.81;31.98
13367;BME280;6752;52.612;13.630;2023-05-13T12:46:51;101360.93;;;24.89;32.07
13367;BME280;6752;52.612;13.630;2023-05-13T12:51:53;101371.42;;;25.06;33.40
13367;BME280;6752;52.612;13.630;2023-05-13T12:56:55;101347.91;;;25.47;32.13
13367;BME280;6752;52.612;13.630;2023-05-13T13:01:58;101361.03;;;25.21;33.52
13367;BME280;6752;52.612;13.630;2023-05-13T13:07:00;101354.52;;;25.45;34.22
13367;BME280;6752;52.612;13.630;2023-05-13T13:12:03;101365.27;;;25.44;34.85
13367;BME280;6752;52.612;13.630;2023-05-13T13:17:05;101362.21;;;22.66;33.50
13367;BME280;6752;52.612;13.630;2023-05-13T13:22:07;101371.14;;;22.95;34.44
13367;BME280;6752;52.612;13.630;2023-05-13T13:27:10;101360.73;;;24.40;33.48
13367;BME280;6752;52.612;13.630;2023-05-13T13:32:12;101358.82;;;24.47;33.78
13367;BME280;6752;52.612;13.630;2023-05-13T13:37:15;101369.53;;;23.48;35.80
13367;BME280;6752;52.612;13.630;2023-05-13T13:42:17;101348.17;;;24.16;34.42
13367;BME280;6752;52.612;13.630;2023-05-13T13:47:19;101361.54;;;23.19;36.51
13367;BME280;6752;52.612;13.630;2023-05-13T13:52:22;101357.41;;;22.87;34.61
13367;BME280;6752;52.612;13.630;2023-05-13T13:57:24;101361.19;;;23.68;36.48
13367;BME280;6752;52.612;13.630;2023-05-13T14:02:26;101361.35;;;22.76;37.93
13367;BME280;6752;52.612;13.630;2023-05-13T14:07:29;101337.26;;;24.19;36.49
13367;BME280;6752;52.612;13.630;2023-05-13T14:12:31;101339.55;;;24.00;36.26
13367;BME280;6752;52.612;13.630;2023-05-13T14:17:33;101344.33;;;22.90;37.01
13367;BME280;6752;52.612;13.630;2023-05-13T14:22:36;101339.38;;;23.41;36.67
13367;BME280;6752;52.612;13.630;2023-05-13T14:27:38;101331.23;;;23.15;35.12
13367;BME280;6752;52.612;13.630;2023-05-13T14:32:41;101324.16;;;23.82;36.71
13367;BME280;6752;52.612;13.630;2023-05-13T14:37:43;101326.49;;;23.84;36.77
13367;BME280;6752;52.612;13.630;2023-05-13T14:42:45;101318.23;;;23.45;34.24
13367;BME280;6752;52.612;13.630;2023-05-13T14:47:47;101322.16;;;23.58;35.64
13367;BME280;6752;52.612;13.630;2023-05-13T14:52:50;101319.77;;;24.02;35.46
13367;BME280;6752;52.612;13.630;2023-05-13T14:57:52;101320.00;;;24.06;36.48
13367;BME280;6752;52.612;13.630;2023-05-13T15:02:55;101313.16;;;23.95;34.93
13367;BME280;6752;52.612;13.630;2023-05-13T15:07:57;101310.05;;;24.23;35.44
13367;BME280;6752;52.612;13.630;2023-05-13T15:12:59;101309.51;;;24.09;36.30
13367;BME280;6752;52.612;13.630;2023-05-13T15:18:02;101326.05;;;23.38;36.52
13367;BME280;6752;52.612;13.630;2023-05-13T15:23:04;101329.09;;;23.05;37.71
13367;BME280;6752;52.612;13.630;2023-05-13T15:28:06;101340.64;;;22.50;40.11
13367;BME280;6752;52.612;13.630;2023-05-13T15:33:09;101345.98;;;22.96;39.75
13367;BME280;6752;52.612;13.630;2023-05-13T15:38:11;101342.97;;;22.15;41.64
13367;BME280;6752;52.612;13.630;2023-05-13T15:43:14;101345.05;;;22.14;42.03
13367;BME280;6752;52.612;13.630;2023-05-13T15:48:16;101333.41;;;23.04;40.36
13367;BME280;6752;52.612;13.630;2023-05-13T15:53:18;101338.02;;;23.21;40.11
13367;BME280;6752;52.612;13.630;2023-05-13T15:58:21;101351.45;;;22.02;42.71
13367;BME280;6752;52.612;13.630;2023-05-13T16:03:23;101347.05;;;21.48;43.51
13367;BME280;6752;52.612;13.630;2023-05-13T16:08:26;101345.21;;;21.22;44.21
13367;BME280;6752;52.612;13.630;2023-05-13T16:13:28;101339.70;;;21.50;43.81
13367;BME280;6752;52.612;13.630;2023-05-13T16:18:30;101339.30;;;21.44;41.76
13367;BME280;6752;52.612;13.630;2023-05-13T16:23:33;101336.25;;;21.33;43.05
13367;BME280;6752;52.612;13.630;2023-05-13T16:28:35;101368.02;;;20.85;42.82
13367;BME280;6752;52.612;13.630;2023-05-13T16:33:37;101368.80;;;20.15;47.00
13367;BME280;6752;52.612;13.630;2023-05-13T16:38:39;101377.38;;;19.95;48.26
13367;BME280;6752;52.612;13.630;2023-05-13T16:43:42;101388.92;;;19.87;48.09
13367;BME280;6752;52.612;13.630;2023-05-13T16:48:44;101388.79;;;19.67;48.20
13367;BME280;6752;52.612;13.630;2023-05-13T16:53:46;101387.44;;;19.72;47.73
13367;BME280;6752;52.612;13.630;2023-05-13T16:58:48;101394.87;;;19.66;48.30
13367;BME280;6752;52.612;13.630;2023-05-13T17:03:51;101389.78;;;19.88;48.28
13367;BME280;6752;52.612;13.630;2023-05-13T17:08:53;101384.41;;;19.73;48.88
13367;BME280;6752;52.612;13.630;2023-05-13T17:13:56;101393.07;;;19.66;50.46
13367;BME280;6752;52.612;13.630;2023-05-13T17:18:58;101392.13;;;19.55;49.73
13367;BME280;6752;52.612;13.630;2023-05-13T17:24:00;101392.53;;;19.15;50.96
13367;BME280;6752;52.612;13.630;2023-05-13T17:29:03;101391.56;;;18.89;51.99
13367;BME280;6752;52.612;13.630;2023-05-13T17:34:05;101397.48;;;18.97;52.46
13367;BME280;6752;52.612;13.630;2023-05-13T17:39:07;101390.28;;;18.72;53.14
13367;BME280;6752;52.612;13.630;2023-05-13T17:44:10;101403.24;;;18.52;53.68
13367;BME280;6752;52.612;13.630;2023-05-13T17:49:12;101406.42;;;18.14;55.40
13367;BME280;6752;52.612;13.630;2023-05-13T17:54:15;101403.98;;;18.06;56.01
13367;BME280;6752;52.612;13.630;2023-05-13T17:59:17;101402.27;;;17.94;56.52
13367;BME280;6752;52.612;13.630;2023-05-13T18:04:19;101401.61;;;17.87;56.94
13367;BME280;6752;52.612;13.630;2023-05-13T18:09:21;101405.55;;;18.00;56.83
13367;BME280;6752;52.612;13.630;2023-05-13T18:14:24;101408.23;;;17.97;57.48
13367;BME280;6752;52.612;13.630;2023-05-13T18:19:26;101398.78;;;17.82;57.87
13367;BME280;6752;52.612;13.630;2023-05-13T18:24:28;101407.95;;;17.40;60.19
13367;BME280;6752;52.612;13.630;2023-05-13T18:29:31;101415.04;;;17.13;61.07
13367;BME280;6752;52.612;13.630;2023-05-13T18:34:33;101414.67;;;17.38;59.21
13367;BME280;6752;52.612;13.630;2023-05-13T18:39:36;101417.34;;;17.33;60.27
13367;BME280;6752;52.612;13.630;2023-05-13T18:44:38;101429.02;;;17.03;64.08
13367;BME280;6752;52.612;13.630;2023-05-13T18:49:40;101423.75;;;17.02;62.46
13367;BME280;6752;52.612;13.630;2023-05-13T18:54:43;101422.48;;;16.72;65.51
13367;BME280;6752;52.612;13.630;2023-05-13T18:59:45;101429.67;;;16.50;66.00
13367;BME280;6752;52.612;13.630;2023-05-13T19:04:47;101430.25;;;16.20;66.32
13367;BME280;6752;52.612;13.630;2023-05-13T19:09:50;101429.18;;;15.92;68.00
13367;BME280;6752;52.612;13.630;2023-05-13T19:14:52;101433.57;;;15.70;68.60
13367;BME280;6752;52.612;13.630;2023-05-13T19:19:54;101444.11;;;15.28;70.93
13367;BME280;6752;52.612;13.630;2023-05-13T19:24:57;101444.28;;;15.24;69.78
13367;BME280;6752;52.612;13.630;2023-05-13T19:29:59;101452.31;;;15.07;70.17
13367;BME280;6752;52.612;13.630;2023-05-13T19:35:01;101451.86;;;14.37;74.76
13367;BME280;6752;52.612;13.630;2023-05-13T19:40:04;101458.11;;;14.35;76.55
13367;BME280;6752;52.612;13.630;2023-05-13T19:45:06;101462.19;;;14.20;76.53
13367;BME280;6752;52.612;13.630;2023-05-13T19:50:08;101458.00;;;14.26;73.81
13367;BME280;6752;52.612;13.630;2023-05-13T19:55:11;101452.09;;;14.05;74.53
13367;BME280;6752;52.612;13.630;2023-05-13T20:00:13;101446.44;;;13.87;75.57
13367;BME280;6752;52.612;13.630;2023-05-13T20:05:15;101450.16;;;13.40;79.47
13367;BME280;6752;52.612;13.630;2023-05-13T20:10:18;101453.13;;;13.38;77.48
13367;BME280;6752;52.612;13.630;2023-05-13T20:15:20;101452.73;;;13.34;77.40
13367;BME280;6752;52.612;13.630;2023-05-13T20:20:23;101451.77;;;13.12;79.27
13367;BME280;6752;52.612;13.630;2023-05-13T20:25:25;101446.38;;;13.21;78.25
13367;BME280;6752;52.612;13.630;2023-05-13T20:30:27;101457.36;;;12.89;77.91
13367;BME280;6752;52.612;13.630;2023-05-13T20:35:30;101453.83;;;12.75;78.38
13367;BME280;6752;52.612;13.630;2023-05-13T20:40:32;101460.03;;;12.44;81.99
13367;BME280;6752;52.612;13.630;2023-05-13T20:45:34;101458.36;;;12.43;81.30
13367;BME280;6752;52.612;13.630;2023-05-13T20:50:39;101463.45;;;12.17;82.08
13367;BME280;6752;52.612;13.630;2023-05-13T20:55:42;101460.33;;;12.07;83.09
13367;BME280;6752;52.612;13.630;2023-05-13T21:00:44;101458.63;;;11.99;83.38
13367;BME280;6752;52.612;13.630;2023-05-13T21:05:46;101456.64;;;11.94;83.94
13367;BME280;6752;52.612;13.630;2023-05-13T21:10:49;101456.73;;;12.03;82.44
13367;BME280;6752;52.612;13.630;2023-05-13T21:15:51;101447.37;;;11.72;87.92
13367;BME280;6752;52.612;13.630;2023-05-13T21:20:53;101452.98;;;11.34;94.67
13367;BME280;6752;52.612;13.630;2023-05-13T21:25:56;101446.58;;;11.34;96.28
13367;BME280;6752;52.612;13.630;2023-05-13T21:30:58;101441.98;;;11.51;94.37
13367;BME280;6752;52.612;13.630;2023-05-13T21:36:01;101442.65;;;11.63;88.38
13367;BME280;6752;52.612;13.630;2023-05-13T21:41:03;101442.83;;;11.51;90.50
13367;BME280;6752;52.612;13.630;2023-05-13T21:46:05;101442.41;;;11.51;90.58
13367;BME280;6752;52.612;13.630;2023-05-13T21:51:08;101440.73;;;11.47;92.49
13367;BME280;6752;52.612;13.630;2023-05-13T21:56:10;101449.77;;;11.47;91.32
13367;BME280;6752;52.612;13.630;2023-05-13T22:01:12;101446.26;;;11.30;91.23
13367;BME280;6752;52.612;13.630;2023-05-13T22:06:15;101442.36;;;11.15;91.65
13367;BME280;6752;52.612;13.630;2023-05-13T22:11:17;101443.16;;;11.09;92.55
13367;BME280;6752;52.612;13.630;2023-05-13T22:16:19;101435.80;;;11.03;92.90
13367;BME280;6752;52.612;13.630;2023-05-13T22:21:22;101432.86;;;10.94;94.76
13367;BME280;6752;52.612;13.630;2023-05-13T22:26:24;101429.87;;;10.86;97.12
13367;BME280;6752;52.612;13.630;2023-05-13T22:31:27;101431.54;;;10.84;99.78
13367;BME280;6752;52.612;13.630;2023-05-13T22:36:29;101432.77;;;10.74;100.00
13367;BME280;6752;52.612;13.630;2023-05-13T22:41:31;101433.30;;;10.77;100.00
13367;BME280;6752;52.612;13.630;2023-05-13T22:46:33;101425.97;;;10.81;99.16
13367;BME280;6752;52.612;13.630;2023-05-13T22:51:36;101427.08;;;10.90;97.65
13367;BME280;6752;52.612;13.630;2023-05-13T22:56:38;101421.42;;;10.95;99.30
13367;BME280;6752;52.612;13.630;2023-05-13T23:01:40;101426.45;;;10.95;100.00
13367;BME280;6752;52.612;13.630;2023-05-13T23:06:43;101419.00;;;10.89;100.00
13367;BME280;6752;52.612;13.630;2023-05-13T23:11:45;101416.70;;;10.96;100.00
13367;BME280;6752;52.612;13.630;2023-05-13T23:16:47;101415.96;;;10.91;100.00
13367;BME280;6752;52.612;13.630;2023-05-13T23:21:50;101417.95;;;10.97;100.00
13367;BME280;6752;52.612;13.630;2023-05-13T23:26:52;101412.83;;;11.04;99.97
13367;BME280;6752;52.612;13.630;2023-05-13T23:31:54;101404.34;;;11.10;100.00
13367;BME280;6752;52.612;13.630;2023-05-13T23:36:57;101396.40;;;11.22;100.00
13367;BME280;6752;52.612;13.630;2023-05-13T23:41:59;101395.24;;;11.17;100.00
13367;BME280;6752;52.612;13.630;2023-05-13T23:47:02;101394.37;;;11.10;100.00
13367;BME280;6752;52.612;13.630;2023-05-13T23:52:04;101386.92;;;11.11;100.00
13367;BME280;6752;52.612;13.630;2023-05-13T23:57:06;101379.61;;;11.15;100.00
